Time;durP1;ratioP1;P1;durP2;ratioP2;P2;SDS_P1;SDS_P2;PMS_P1;PMS_P2;Temp;Humidity;BMP_temperature;BMP_pressure;BME280_temperature;BME280_humidity;BME280_pressure;Samples;Min_cycle;Max_cycle;Signal;HPM_P1;HPM_P2
2022/12/12 00:01:48;;;;;;;40.95;19.95;;;;;;;;;;7357456;19;20082;-79
2022/12/12 00:04:13;;;;;;;40.85;21.13;;;;;;;;;;7355309;19;20021;-79
2022/12/12 00:06:38;;;;;;;42.65;21.77;;;;;;;;;;7348923;19;20006;-80
2022/12/12 00:09:03;;;;;;;34.42;17.75;;;;;;;;;;7352987;19;20408;-80
2022/12/12 00:11:29;;;;;;;35.28;19.98;;;;;;;;;;7354699;19;20076;-80
2022/12/12 00:13:55;;;;;;;38.08;19.35;;;;;;;;;;7359513;19;20018;-77
2022/12/12 00:16:20;;;;;;;39.72;20.35;;;;;;;;;;7358716;19;20010;-78
2022/12/12 00:18:45;;;;;;;42.33;21.00;;;;;;;;;;7359784;19;20015;-79
2022/12/12 00:21:14;;;;;;;41.42;21.00;;;;;;;;;;7362206;19;20010;-81
2022/12/12 00:23:40;;;;;;;37.92;19.27;;;;;;;;;;7363489;19;20011;-79
2022/12/12 00:26:07;;;;;;;48.33;22.17;;;;;;;;;;7359093;19;20032;-80
2022/12/12 00:28:32;;;;;;;43.05;20.92;;;;;;;;;;7320408;19;21757;-78
2022/12/12 00:30:58;;;;;;;37.33;20.63;;;;;;;;;;7366978;19;20798;-78
2022/12/12 00:33:23;;;;;;;38.63;19.90;;;;;;;;;;7348670;19;20451;-80
2022/12/12 00:35:49;;;;;;;39.78;20.10;;;;;;;;;;7359524;19;20011;-80
2022/12/12 00:38:15;;;;;;;40.92;20.30;;;;;;;;;;7358180;19;20115;-79
2022/12/12 00:40:40;;;;;;;36.95;20.02;;;;;;;;;;7314792;19;20533;-79
2022/12/12 00:43:05;;;;;;;40.67;21.95;;;;;;;;;;7332009;19;20344;-81
2022/12/12 00:45:30;;;;;;;42.22;20.38;;;;;;;;;;7318751;19;20419;-80
2022/12/12 00:47:56;;;;;;;39.28;20.08;;;;;;;;;;7345991;19;20007;-80
2022/12/12 00:50:21;;;;;;;38.30;19.38;;;;;;;;;;7362726;19;20519;-80
2022/12/12 00:52:46;;;;;;;42.45;19.50;;;;;;;;;;7358328;19;19995;-80
2022/12/12 00:55:11;;;;;;;37.80;19.65;;;;;;;;;;7354232;19;20003;-80
2022/12/12 00:57:37;;;;;;;38.80;19.83;;;;;;;;;;7354255;19;20114;-78
2022/12/12 01:00:03;;;;;;;38.08;20.35;;;;;;;;;;7358702;19;20014;-78
2022/12/12 01:02:29;;;;;;;39.42;19.75;;;;;;;;;;7363731;19;20427;-79
2022/12/12 01:04:54;;;;;;;40.40;20.17;;;;;;;;;;7367049;19;20032;-80
2022/12/12 01:07:19;;;;;;;35.50;18.92;;;;;;;;;;7353647;19;20010;-79
2022/12/12 01:09:44;;;;;;;37.28;18.52;;;;;;;;;;7367250;19;20686;-78
2022/12/12 01:12:09;;;;;;;40.30;18.73;;;;;;;;;;7366216;19;20018;-78
2022/12/12 01:14:34;;;;;;;41.78;21.02;;;;;;;;;;7341864;19;20122;-77
2022/12/12 01:17:01;;;;;;;37.55;18.63;;;;;;;;;;7365132;19;20450;-79
2022/12/12 01:19:26;;;;;;;36.45;18.63;;;;;;;;;;7362340;19;20011;-79
2022/12/12 01:21:51;;;;;;;39.88;20.35;;;;;;;;;;7362377;19;20448;-82
2022/12/12 01:24:16;;;;;;;38.60;19.90;;;;;;;;;;7359926;19;20347;-80
2022/12/12 01:26:41;;;;;;;39.20;20.08;;;;;;;;;;7361737;19;19998;-80
2022/12/12 01:29:06;;;;;;;41.78;21.38;;;;;;;;;;7358548;19;20039;-79
2022/12/12 01:31:32;;;;;;;35.95;19.52;;;;;;;;;;7349722;19;20004;-79
2022/12/12 01:33:57;;;;;;;39.97;20.48;;;;;;;;;;7353127;19;20466;-79
2022/12/12 01:36:22;;;;;;;41.58;19.77;;;;;;;;;;7360655;19;20002;-79
2022/12/12 01:38:48;;;;;;;37.83;19.92;;;;;;;;;;7354912;19;20011;-79
2022/12/12 01:41:14;;;;;;;38.22;20.70;;;;;;;;;;7363139;19;20347;-78
2022/12/12 01:43:39;;;;;;;35.88;19.20;;;;;;;;;;7304354;19;20006;-79
2022/12/12 01:46:07;;;;;;;41.08;19.98;;;;;;;;;;7359419;19;20006;-79
2022/12/12 01:48:44;;;;;;;40.30;20.42;;;;;;;;;;7354470;19;20119;-78
2022/12/12 01:51:13;;;;;;;38.78;19.38;;;;;;;;;;7365942;19;20351;-79
2022/12/12 01:53:38;;;;;;;36.90;18.42;;;;;;;;;;7354001;19;20003;-80
2022/12/12 01:56:06;;;;;;;40.28;19.52;;;;;;;;;;7367131;19;20576;-78
2022/12/12 01:58:32;;;;;;;36.80;19.45;;;;;;;;;;7346714;19;20538;-78
2022/12/12 02:00:57;;;;;;;38.45;19.45;;;;;;;;;;7362802;19;20037;-78
2022/12/12 02:03:22;;;;;;;35.22;18.80;;;;;;;;;;7356409;19;20010;-80
2022/12/12 02:05:50;;;;;;;37.45;19.70;;;;;;;;;;7361244;19;20050;-79
2022/12/12 02:08:16;;;;;;;35.80;18.83;;;;;;;;;;7360613;19;20006;-78
2022/12/12 02:10:42;;;;;;;37.42;19.42;;;;;;;;;;7357852;19;20010;-78
2022/12/12 02:13:10;;;;;;;41.63;19.48;;;;;;;;;;7352200;19;20560;-81
2022/12/12 02:15:41;;;;;;;42.85;20.52;;;;;;;;;;7351589;19;20125;-79
2022/12/12 02:18:09;;;;;;;37.45;18.98;;;;;;;;;;7364083;19;20359;-79
2022/12/12 02:20:44;;;;;;;36.75;18.55;;;;;;;;;;7365057;19;20011;-80
2022/12/12 02:23:15;;;;;;;37.97;18.83;;;;;;;;;;7361488;19;20010;-80
2022/12/12 02:25:56;;;;;;;36.03;17.92;;;;;;;;;;7370144;19;20013;-77
2022/12/12 02:28:24;;;;;;;35.15;18.27;;;;;;;;;;7360236;19;20021;-77
2022/12/12 02:31:08;;;;;;;40.13;20.10;;;;;;;;;;7374122;19;20014;-78
2022/12/12 02:33:33;;;;;;;41.55;20.20;;;;;;;;;;7361248;19;20046;-78
2022/12/12 02:36:02;;;;;;;38.20;19.26;;;;;;;;;;7361373;19;20392;-79
2022/12/12 02:38:29;;;;;;;40.50;20.27;;;;;;;;;;7367378;19;20041;-80
2022/12/12 02:41:14;;;;;;;37.83;20.05;;;;;;;;;;7369219;19;20014;-78
2022/12/12 02:43:48;;;;;;;34.67;18.38;;;;;;;;;;7267009;19;20463;-81
2022/12/12 02:46:19;;;;;;;40.40;19.17;;;;;;;;;;7191683;19;20105;-81
2022/12/12 02:48:47;;;;;;;34.63;18.88;;;;;;;;;;7173127;19;20014;-81
2022/12/12 02:51:14;;;;;;;40.00;19.17;;;;;;;;;;7185185;19;20011;-79
2022/12/12 02:53:39;;;;;;;39.22;19.23;;;;;;;;;;7193673;19;21010;-80
2022/12/12 02:56:07;;;;;;;37.63;18.92;;;;;;;;;;7192634;19;20824;-80
2022/12/12 02:58:35;;;;;;;40.33;20.15;;;;;;;;;;7191990;19;21632;-81
2022/12/12 03:01:11;;;;;;;38.70;20.67;;;;;;;;;;7205905;19;20018;-81
2022/12/12 03:09:09;;;;;;;;;;;;;;;;;;7201199;19;20033;-78
2022/12/12 03:11:40;;;;;;;43.58;20.20;;;;;;;;;;7200401;19;19919;-80
2022/12/12 03:14:05;;;;;;;42.55;20.73;;;;;;;;;;7185593;19;20287;-80
2022/12/12 03:16:35;;;;;;;37.50;20.23;;;;;;;;;;7191705;19;20033;-80
2022/12/12 03:19:01;;;;;;;44.42;22.08;;;;;;;;;;7207355;19;21167;-79
2022/12/12 03:21:43;;;;;;;39.80;21.08;;;;;;;;;;7180260;19;20007;-81
2022/12/12 03:24:13;;;;;;;39.83;21.92;;;;;;;;;;7178500;19;21709;-81
2022/12/12 03:26:51;;;;;;;40.03;21.20;;;;;;;;;;7185732;19;20329;-80
2022/12/12 03:29:20;;;;;;;39.53;20.95;;;;;;;;;;7186707;19;20017;-80
2022/12/12 03:31:47;;;;;;;36.55;19.98;;;;;;;;;;7180138;19;20626;-80
2022/12/12 03:34:17;;;;;;;37.03;20.02;;;;;;;;;;7188938;19;20916;-81
2022/12/12 03:36:50;;;;;;;41.65;20.33;;;;;;;;;;7181609;19;20304;-80
2022/12/12 03:39:44;;;;;;;39.28;20.40;;;;;;;;;;7199595;19;20589;-82
2022/12/12 03:42:09;;;;;;;;;;;;;;;;;;7197965;19;20288;-80
2022/12/12 03:44:38;;;;;;;41.38;21.20;;;;;;;;;;7343813;19;19922;-80
2022/12/12 03:47:06;;;;;;;38.10;20.27;;;;;;;;;;7364452;19;20279;-79
2022/12/12 03:49:38;;;;;;;42.28;21.67;;;;;;;;;;7351055;19;20539;-79
2022/12/12 03:52:09;;;;;;;38.22;20.33;;;;;;;;;;7360866;19;20467;-80
2022/12/12 03:55:04;;;;;;;38.55;19.73;;;;;;;;;;7351006;19;20288;-80
2022/12/12 03:57:34;;;;;;;39.03;19.45;;;;;;;;;;7352544;19;20054;-81
2022/12/12 04:00:09;;;;;;;39.78;19.77;;;;;;;;;;7364723;19;20010;-81
2022/12/12 04:02:50;;;;;;;37.22;18.98;;;;;;;;;;7356432;19;20079;-78
2022/12/12 04:05:34;;;;;;;39.40;19.30;;;;;;;;;;7361834;19;20464;-81
2022/12/12 04:08:01;;;;;;;39.17;20.58;;;;;;;;;;7363409;19;20011;-80
2022/12/12 04:13:14;;;;;;;37.35;19.02;;;;;;;;;;7348938;19;20048;-78
2022/12/12 04:15:54;;;;;;;36.22;18.63;;;;;;;;;;7353249;19;20043;-79
2022/12/12 04:18:35;;;;;;;35.17;18.73;;;;;;;;;;7363351;19;20007;-79
2022/12/12 04:23:53;;;;;;;35.92;18.65;;;;;;;;;;7361787;19;20778;-80
2022/12/12 04:26:40;;;;;;;35.85;17.98;;;;;;;;;;7366630;19;20066;-79
2022/12/12 04:29:08;;;;;;;37.15;19.20;;;;;;;;;;7356920;19;20559;-82
2022/12/12 04:31:35;;;;;;;38.85;19.88;;;;;;;;;;7359012;19;20014;-82
2022/12/12 04:34:02;;;;;;;34.38;18.50;;;;;;;;;;7364126;19;20413;-78
2022/12/12 04:36:28;;;;;;;35.67;18.48;;;;;;;;;;7358096;19;20014;-81
2022/12/12 04:38:54;;;;;;;36.20;20.55;;;;;;;;;;7345627;19;20526;-79
2022/12/12 04:41:20;;;;;;;39.17;19.33;;;;;;;;;;7307425;19;20014;-79
2022/12/12 04:43:47;;;;;;;36.15;20.05;;;;;;;;;;7324787;19;21003;-81
2022/12/12 04:46:14;;;;;;;39.63;21.65;;;;;;;;;;7342205;19;20042;-79
2022/12/12 04:48:43;;;;;;;38.45;20.65;;;;;;;;;;7350262;19;20358;-79
2022/12/12 04:51:09;;;;;;;40.58;20.60;;;;;;;;;;7363893;19;20439;-78
2022/12/12 04:53:37;;;;;;;36.42;20.77;;;;;;;;;;7344438;19;20070;-79
2022/12/12 04:56:07;;;;;;;40.50;20.75;;;;;;;;;;7342797;19;20014;-80
2022/12/12 04:58:32;;;;;;;39.92;20.88;;;;;;;;;;7344035;19;20424;-81
2022/12/12 05:01:09;;;;;;;40.75;21.90;;;;;;;;;;7327978;19;20018;-78
2022/12/12 05:03:45;;;;;;;39.97;21.85;;;;;;;;;;7358879;19;20142;-80
2022/12/12 05:06:12;;;;;;;38.80;21.40;;;;;;;;;;7350480;19;20333;-79
2022/12/12 05:08:39;;;;;;;40.78;20.67;;;;;;;;;;7349620;19;20007;-81
2022/12/12 05:11:05;;;;;;;34.45;19.27;;;;;;;;;;7359677;19;20746;-82
2022/12/12 05:13:32;;;;;;;41.88;21.25;;;;;;;;;;7346962;19;20006;-78
2022/12/12 05:15:58;;;;;;;41.08;21.50;;;;;;;;;;7365650;19;20457;-78
2022/12/12 05:18:24;;;;;;;39.80;21.00;;;;;;;;;;7362177;19;20142;-77
2022/12/12 05:20:49;;;;;;;38.63;20.27;;;;;;;;;;7355660;19;20458;-79
2022/12/12 05:23:14;;;;;;;33.88;20.25;;;;;;;;;;7353287;19;20022;-78
2022/12/12 05:25:40;;;;;;;38.75;21.10;;;;;;;;;;7356958;19;20485;-78
2022/12/12 05:28:05;;;;;;;39.95;22.13;;;;;;;;;;7344729;19;22412;-81
2022/12/12 05:30:31;;;;;;;40.17;21.95;;;;;;;;;;7349129;19;20003;-81
2022/12/12 05:32:56;;;;;;;36.38;20.83;;;;;;;;;;7347536;19;20450;-79
2022/12/12 05:35:21;;;;;;;37.03;20.20;;;;;;;;;;7359118;19;20014;-78
2022/12/12 05:37:46;;;;;;;39.15;22.17;;;;;;;;;;7344060;19;20006;-79
2022/12/12 05:40:12;;;;;;;38.65;21.05;;;;;;;;;;7353393;19;20754;-80
2022/12/12 05:42:38;;;;;;;39.92;22.05;;;;;;;;;;7338090;19;20122;-81
2022/12/12 05:45:04;;;;;;;40.08;22.35;;;;;;;;;;7363529;19;20005;-79
2022/12/12 05:47:29;;;;;;;41.95;24.10;;;;;;;;;;7360409;19;20345;-78
2022/12/12 05:49:54;;;;;;;48.38;27.00;;;;;;;;;;7358345;19;19994;-78
2022/12/12 05:52:19;;;;;;;41.08;23.27;;;;;;;;;;7359665;19;20606;-77
2022/12/12 05:54:44;;;;;;;43.52;22.62;;;;;;;;;;7346354;19;20012;-77
2022/12/12 05:57:09;;;;;;;42.63;22.92;;;;;;;;;;7353049;19;20588;-81
2022/12/12 05:59:35;;;;;;;42.83;23.05;;;;;;;;;;7354530;19;20030;-80
2022/12/12 06:02:00;;;;;;;39.85;23.48;;;;;;;;;;7346521;19;20014;-78
2022/12/12 06:04:25;;;;;;;39.60;21.80;;;;;;;;;;7356832;19;20379;-79
2022/12/12 06:06:50;;;;;;;45.95;23.35;;;;;;;;;;7353354;19;20613;-80
2022/12/12 06:09:16;;;;;;;40.28;23.15;;;;;;;;;;7354080;19;20017;-78
2022/12/12 06:11:41;;;;;;;41.65;22.95;;;;;;;;;;7357357;19;20255;-79
2022/12/12 06:14:06;;;;;;;39.03;22.80;;;;;;;;;;7354325;19;20010;-78
2022/12/12 06:16:33;;;;;;;43.25;23.65;;;;;;;;;;7357808;19;20039;-80
2022/12/12 06:18:59;;;;;;;41.20;23.73;;;;;;;;;;7364664;19;20511;-79
2022/12/12 06:21:24;;;;;;;46.90;23.85;;;;;;;;;;7359957;19;20069;-80
2022/12/12 06:23:49;;;;;;;40.67;22.73;;;;;;;;;;7352251;19;20011;-79
2022/12/12 06:26:15;;;;;;;41.30;23.52;;;;;;;;;;7360333;19;20003;-78
2022/12/12 06:28:41;;;;;;;48.60;27.02;;;;;;;;;;7352314;19;20007;-79
2022/12/12 06:31:06;;;;;;;45.10;24.63;;;;;;;;;;7357081;19;20026;-78
2022/12/12 06:33:34;;;;;;;44.33;25.15;;;;;;;;;;7354050;19;20022;-82
2022/12/12 06:35:59;;;;;;;41.25;22.58;;;;;;;;;;7355201;19;20077;-81
2022/12/12 06:38:24;;;;;;;42.75;24.35;;;;;;;;;;7349110;19;20503;-81
2022/12/12 06:40:50;;;;;;;42.90;23.35;;;;;;;;;;7345696;19;20006;-82
2022/12/12 06:43:15;;;;;;;42.67;23.65;;;;;;;;;;7347991;19;20009;-79
2022/12/12 06:45:40;;;;;;;42.38;23.40;;;;;;;;;;7349042;19;20115;-78
2022/12/12 06:48:05;;;;;;;38.83;22.75;;;;;;;;;;7349003;19;20024;-82
2022/12/12 06:50:30;;;;;;;42.42;22.95;;;;;;;;;;7353969;19;20023;-79
2022/12/12 06:52:55;;;;;;;40.67;22.42;;;;;;;;;;7347757;19;20011;-80
2022/12/12 06:55:21;;;;;;;40.65;22.20;;;;;;;;;;7344074;19;20530;-80
2022/12/12 06:57:46;;;;;;;43.70;24.38;;;;;;;;;;7329379;19;20014;-80
2022/12/12 07:00:11;;;;;;;41.25;23.13;;;;;;;;;;7350736;19;20010;-78
2022/12/12 07:02:36;;;;;;;42.75;23.83;;;;;;;;;;7355061;19;20011;-78
2022/12/12 07:05:02;;;;;;;42.58;23.65;;;;;;;;;;7354454;19;20003;-80
2022/12/12 07:07:27;;;;;;;43.33;23.50;;;;;;;;;;7362241;19;20013;-79
2022/12/12 07:09:52;;;;;;;46.78;24.85;;;;;;;;;;7360664;19;20311;-78
2022/12/12 07:12:17;;;;;;;46.95;24.73;;;;;;;;;;7348881;19;20051;-78
2022/12/12 07:14:42;;;;;;;45.30;25.45;;;;;;;;;;7361532;19;20021;-78
2022/12/12 07:17:08;;;;;;;45.80;25.67;;;;;;;;;;7358541;19;20006;-79
2022/12/12 07:19:33;;;;;;;47.15;24.95;;;;;;;;;;7365812;19;20010;-80
2022/12/12 07:21:58;;;;;;;44.58;24.83;;;;;;;;;;7332446;19;20020;-80
2022/12/12 07:24:23;;;;;;;48.15;26.02;;;;;;;;;;7338992;19;20279;-80
2022/12/12 07:26:48;;;;;;;48.13;26.52;;;;;;;;;;7329559;19;20007;-81
2022/12/12 07:29:14;;;;;;;43.75;23.67;;;;;;;;;;7348484;19;20010;-78
2022/12/12 07:31:39;;;;;;;48.60;24.52;;;;;;;;;;7344594;19;20546;-78
2022/12/12 07:34:05;;;;;;;47.88;25.70;;;;;;;;;;7332567;19;21091;-78
2022/12/12 07:36:30;;;;;;;43.05;24.33;;;;;;;;;;7326121;19;20011;-80
2022/12/12 07:38:55;;;;;;;48.00;25.75;;;;;;;;;;7355837;19;20010;-78
2022/12/12 07:41:20;;;;;;;49.35;26.52;;;;;;;;;;7370545;19;20015;-80
2022/12/12 07:43:46;;;;;;;45.05;25.98;;;;;;;;;;7349809;19;19999;-81
2022/12/12 07:46:13;;;;;;;49.55;26.40;;;;;;;;;;7368740;19;20709;-82
2022/12/12 07:48:38;;;;;;;51.25;28.10;;;;;;;;;;7363057;19;20038;-82
2022/12/12 07:51:04;;;;;;;48.20;27.27;;;;;;;;;;7354130;19;20002;-82
2022/12/12 07:53:29;;;;;;;51.40;27.65;;;;;;;;;;7312024;19;20002;-82
2022/12/12 07:55:55;;;;;;;50.63;27.33;;;;;;;;;;7365812;19;20356;-81
2022/12/12 07:58:20;;;;;;;51.92;27.75;;;;;;;;;;7321186;19;20006;-83
2022/12/12 08:00:45;;;;;;;46.60;25.75;;;;;;;;;;7336731;19;20006;-79
2022/12/12 08:03:10;;;;;;;47.24;26.40;;;;;;;;;;7344786;19;20086;-79
2022/12/12 08:05:39;;;;;;;46.25;24.70;;;;;;;;;;7348372;19;20030;-80
2022/12/12 08:08:05;;;;;;;47.80;26.42;;;;;;;;;;7362054;19;20713;-83
2022/12/12 08:10:30;;;;;;;44.13;25.33;;;;;;;;;;7366272;19;20006;-81
2022/12/12 08:12:55;;;;;;;42.08;24.90;;;;;;;;;;7356836;19;20402;-80
2022/12/12 08:15:21;;;;;;;43.28;25.13;;;;;;;;;;7369489;19;21038;-80
2022/12/12 08:17:46;;;;;;;47.88;24.98;;;;;;;;;;7362048;19;20003;-80
2022/12/12 08:20:11;;;;;;;48.25;25.50;;;;;;;;;;7369732;19;20019;-81
2022/12/12 08:22:36;;;;;;;45.78;26.58;;;;;;;;;;7359082;19;20015;-81
2022/12/12 08:25:02;;;;;;;48.03;25.98;;;;;;;;;;7372262;19;21138;-81
2022/12/12 08:27:27;;;;;;;50.53;24.30;;;;;;;;;;7362929;19;20014;-80
2022/12/12 08:29:52;;;;;;;44.02;24.56;;;;;;;;;;7360664;19;20371;-80
2022/12/12 08:32:17;;;;;;;46.28;26.02;;;;;;;;;;7369145;19;20010;-81
2022/12/12 08:34:43;;;;;;;41.70;23.00;;;;;;;;;;7368036;19;20010;-80
2022/12/12 08:37:08;;;;;;;40.10;23.60;;;;;;;;;;7362015;19;20013;-81
2022/12/12 08:39:33;;;;;;;46.10;23.98;;;;;;;;;;7367921;19;20878;-80
2022/12/12 08:41:59;;;;;;;44.53;23.27;;;;;;;;;;7365244;19;20003;-80
2022/12/12 08:44:24;;;;;;;43.35;24.60;;;;;;;;;;7362658;19;20015;-81
2022/12/12 08:46:50;;;;;;;43.28;24.88;;;;;;;;;;7366113;19;20355;-80
2022/12/12 08:49:15;;;;;;;40.80;23.30;;;;;;;;;;7364251;19;20002;-80
2022/12/12 08:51:41;;;;;;;44.00;23.85;;;;;;;;;;7365539;19;20025;-81
2022/12/12 08:54:07;;;;;;;44.78;24.02;;;;;;;;;;7363126;19;20014;-80
2022/12/12 08:56:32;;;;;;;42.75;24.13;;;;;;;;;;7356415;19;20006;-80
2022/12/12 08:58:57;;;;;;;45.03;24.90;;;;;;;;;;7322572;19;20609;-80
2022/12/12 09:01:24;;;;;;;44.33;25.25;;;;;;;;;;7330969;19;20010;-82
2022/12/12 09:03:49;;;;;;;43.33;24.33;;;;;;;;;;7338824;19;20405;-80
2022/12/12 09:06:15;;;;;;;45.97;26.17;;;;;;;;;;7345838;19;20014;-80
2022/12/12 09:08:41;;;;;;;47.20;26.15;;;;;;;;;;7357639;19;20390;-80
2022/12/12 09:11:07;;;;;;;45.33;25.25;;;;;;;;;;7354759;19;20026;-80
2022/12/12 09:13:33;;;;;;;46.55;26.48;;;;;;;;;;7351246;19;20034;-81
2022/12/12 09:15:58;;;;;;;47.22;24.13;;;;;;;;;;7350811;19;20011;-80
2022/12/12 09:18:24;;;;;;;45.33;25.88;;;;;;;;;;7344537;19;20006;-80
2022/12/12 09:20:50;;;;;;;42.97;25.05;;;;;;;;;;7348634;19;20010;-81
2022/12/12 09:23:15;;;;;;;47.33;25.42;;;;;;;;;;7348454;19;20021;-81
2022/12/12 09:25:41;;;;;;;63.88;31.60;;;;;;;;;;7359943;19;20034;-79
2022/12/12 09:28:07;;;;;;;47.58;25.83;;;;;;;;;;7345144;19;20249;-79
2022/12/12 09:30:32;;;;;;;48.30;26.77;;;;;;;;;;7364060;19;20686;-80
2022/12/12 09:32:57;;;;;;;48.92;25.92;;;;;;;;;;7354906;19;20006;-80
2022/12/12 09:35:22;;;;;;;49.30;26.45;;;;;;;;;;7356970;19;20339;-79
2022/12/12 09:37:48;;;;;;;48.58;27.73;;;;;;;;;;7311331;19;20029;-81
2022/12/12 09:40:22;;;;;;;42.08;24.23;;;;;;;;;;7325512;19;20015;-80
2022/12/12 09:42:49;;;;;;;47.92;25.25;;;;;;;;;;7341004;19;20010;-80
2022/12/12 09:45:14;;;;;;;45.22;25.35;;;;;;;;;;7357056;19;20385;-79
2022/12/12 09:47:41;;;;;;;43.92;25.30;;;;;;;;;;7347566;19;20029;-79
2022/12/12 09:50:30;;;;;;;47.00;26.00;;;;;;;;;;7351929;19;20038;-79
2022/12/12 09:52:57;;;;;;;50.80;26.13;;;;;;;;;;7340330;19;20007;-81
2022/12/12 09:55:22;;;;;;;45.30;25.05;;;;;;;;;;7355580;19;20037;-81
2022/12/12 09:57:51;;;;;;;41.65;23.17;;;;;;;;;;7337781;19;20010;-79
2022/12/12 10:00:17;;;;;;;43.70;24.83;;;;;;;;;;7338326;19;21200;-80
2022/12/12 10:02:54;;;;;;;46.85;25.42;;;;;;;;;;7339590;19;20451;-80
2022/12/12 10:05:31;;;;;;;43.72;23.77;;;;;;;;;;7284751;19;20017;-79
2022/12/12 10:08:17;;;;;;;46.80;24.70;;;;;;;;;;7343434;19;20018;-80
2022/12/12 10:10:43;;;;;;;43.80;24.45;;;;;;;;;;7333045;19;20010;-83
2022/12/12 10:13:18;;;;;;;42.45;23.23;;;;;;;;;;7318502;19;20003;-81
2022/12/12 10:15:58;;;;;;;40.05;23.45;;;;;;;;;;7340370;19;20384;-83
2022/12/12 10:18:29;;;;;;;41.97;23.38;;;;;;;;;;7351494;19;20042;-83
2022/12/12 10:20:56;;;;;;;43.22;23.48;;;;;;;;;;7342058;19;20720;-82
2022/12/12 10:23:30;;;;;;;40.78;23.05;;;;;;;;;;7357451;19;20015;-81
2022/12/12 10:25:58;;;;;;;41.10;23.50;;;;;;;;;;7344710;19;20006;-82
2022/12/12 10:28:24;;;;;;;42.80;22.60;;;;;;;;;;7340298;19;20070;-81
2022/12/12 10:31:08;;;;;;;42.13;23.95;;;;;;;;;;7343878;19;20034;-83
2022/12/12 10:33:34;;;;;;;;;;;;;;;;;;7356672;19;20013;-79
2022/12/12 10:36:05;;;;;;;39.03;22.73;;;;;;;;;;7344833;19;20255;-79
2022/12/12 10:38:49;;;;;;;39.90;22.55;;;;;;;;;;7368263;19;20011;-79
2022/12/12 10:41:36;;;;;;;40.75;22.70;;;;;;;;;;7371011;19;20023;-79
2022/12/12 10:44:15;;;;;;;41.05;21.13;;;;;;;;;;7345194;19;20029;-78
2022/12/12 10:46:50;;;;;;;41.50;22.50;;;;;;;;;;7364797;19;20085;-79
2022/12/12 10:49:16;;;;;;;39.13;21.02;;;;;;;;;;7356540;19;20031;-78
2022/12/12 10:51:43;;;;;;;40.60;22.75;;;;;;;;;;7353444;19;20388;-80
2022/12/12 10:54:29;;;;;;;39.92;21.85;;;;;;;;;;7332783;19;20014;-82
2022/12/12 10:57:12;;;;;;;38.58;21.83;;;;;;;;;;7345394;19;20140;-79
2022/12/12 10:59:45;;;;;;;42.50;22.02;;;;;;;;;;7367355;19;20456;-79
2022/12/12 11:02:26;;;;;;;40.20;22.42;;;;;;;;;;7366829;19;20021;-79
2022/12/12 11:04:59;;;;;;;41.22;22.33;;;;;;;;;;7327902;19;20022;-81
2022/12/12 11:07:25;;;;;;;42.22;22.85;;;;;;;;;;7354795;19;20011;-79
2022/12/12 11:09:50;;;;;;;41.60;21.67;;;;;;;;;;7360137;19;20041;-81
2022/12/12 11:12:15;;;;;;;39.72;21.10;;;;;;;;;;7362403;19;20003;-79
2022/12/12 11:14:48;;;;;;;38.42;20.88;;;;;;;;;;7368256;19;20271;-79
2022/12/12 11:17:26;;;;;;;40.45;22.23;;;;;;;;;;7360705;19;20021;-79
2022/12/12 11:19:56;;;;;;;42.42;21.80;;;;;;;;;;7358652;19;20011;-80
2022/12/12 11:22:22;;;;;;;44.92;22.98;;;;;;;;;;7361507;19;20010;-79
2022/12/12 11:24:48;;;;;;;40.85;21.67;;;;;;;;;;7355986;19;20020;-80
2022/12/12 11:27:30;;;;;;;41.80;23.23;;;;;;;;;;7359057;19;20006;-80
2022/12/12 11:30:02;;;;;;;44.63;22.42;;;;;;;;;;7357778;19;20108;-79
2022/12/12 11:32:30;;;;;;;39.47;21.70;;;;;;;;;;7361751;19;20014;-79
2022/12/12 11:34:58;;;;;;;41.53;21.00;;;;;;;;;;7355399;19;20011;-79
2022/12/12 11:37:25;;;;;;;40.00;21.55;;;;;;;;;;7363489;19;20451;-80
2022/12/12 11:39:52;;;;;;;39.63;21.38;;;;;;;;;;7355634;19;20023;-80
2022/12/12 11:42:24;;;;;;;43.13;22.10;;;;;;;;;;7360422;19;20459;-80
2022/12/12 11:44:56;;;;;;;36.65;20.10;;;;;;;;;;7362596;19;20021;-80
2022/12/12 11:47:37;;;;;;;35.95;19.65;;;;;;;;;;7361377;19;20014;-80
2022/12/12 11:50:13;;;;;;;39.17;20.83;;;;;;;;;;7360429;19;20006;-80
2022/12/12 11:52:38;;;;;;;38.00;20.42;;;;;;;;;;7369078;19;20220;-80
2022/12/12 11:55:11;;;;;;;39.15;21.48;;;;;;;;;;7321339;19;20394;-80
2022/12/12 11:57:55;;;;;;;41.43;19.80;;;;;;;;;;7341894;19;20066;-80
2022/12/12 12:00:21;;;;;;;33.20;18.27;;;;;;;;;;7331988;19;20018;-80
2022/12/12 12:03:03;;;;;;;38.58;19.95;;;;;;;;;;7347232;19;20010;-80
2022/12/12 12:05:37;;;;;;;39.63;20.00;;;;;;;;;;7346614;19;20006;-82
2022/12/12 12:08:16;;;;;;;35.55;19.48;;;;;;;;;;7324087;19;20010;-82
2022/12/12 12:10:59;;;;;;;35.30;18.88;;;;;;;;;;7364767;19;20121;-82
2022/12/12 12:13:38;;;;;;;39.33;20.05;;;;;;;;;;7334052;19;20032;-80
2022/12/12 12:16:22;;;;;;;36.38;18.95;;;;;;;;;;7327683;19;20029;-80
2022/12/12 12:18:47;;;;;;;;;;;;;;;;;;7349426;19;20399;-81
2022/12/12 12:21:19;;;;;;;34.70;19.27;;;;;;;;;;7346617;19;19927;-80
2022/12/12 12:23:50;;;;;;;35.60;18.90;;;;;;;;;;7358482;19;20014;-80
2022/12/12 12:26:22;;;;;;;34.40;18.08;;;;;;;;;;7357485;19;20047;-81
2022/12/12 12:29:06;;;;;;;34.88;19.23;;;;;;;;;;7314735;19;20587;-81
2022/12/12 12:31:31;;;;;;;;;;;;;;;;;;7359222;19;20114;-81
2022/12/12 12:34:02;;;;;;;32.38;16.63;;;;;;;;;;7360403;19;19950;-81
2022/12/12 12:36:51;;;;;;;31.83;16.73;;;;;;;;;;7367452;19;20041;-81
2022/12/12 12:39:22;;;;;;;37.03;17.30;;;;;;;;;;7367100;19;20029;-80
2022/12/12 12:41:51;;;;;;;31.75;16.80;;;;;;;;;;7359561;19;20010;-80
2022/12/12 12:44:23;;;;;;;24.58;13.90;;;;;;;;;;7362709;19;20334;-81
2022/12/12 12:47:18;;;;;;;30.70;15.48;;;;;;;;;;7364781;19;20554;-81
2022/12/12 12:49:48;;;;;;;27.75;14.23;;;;;;;;;;7356555;19;20094;-81
2022/12/12 12:52:18;;;;;;;24.27;12.75;;;;;;;;;;7366711;19;20483;-80
2022/12/12 12:54:47;;;;;;;25.63;12.63;;;;;;;;;;7368000;19;20022;-80
2022/12/12 12:57:31;;;;;;;26.83;13.75;;;;;;;;;;7348536;19;20093;-80
2022/12/12 12:59:57;;;;;;;;;;;;;;;;;;7368623;19;20014;-80
2022/12/12 13:02:22;;;;;;;27.27;13.50;;;;;;;;;;7356363;19;19972;-80
2022/12/12 13:04:52;;;;;;;35.08;15.52;;;;;;;;;;7365612;19;20030;-80
2022/12/12 13:07:25;;;;;;;27.02;13.73;;;;;;;;;;7366500;19;20526;-80
2022/12/12 13:09:56;;;;;;;28.83;13.70;;;;;;;;;;7369039;19;20042;-80
2022/12/12 13:12:36;;;;;;;28.83;13.40;;;;;;;;;;7357271;19;20010;-81
2022/12/12 13:15:27;;;;;;;31.40;13.98;;;;;;;;;;7363335;19;20366;-80
2022/12/12 13:17:56;;;;;;;30.83;14.43;;;;;;;;;;7351778;19;20010;-82
2022/12/12 13:20:22;;;;;;;35.13;15.27;;;;;;;;;;7368812;19;20533;-80
2022/12/12 13:22:52;;;;;;;33.25;13.60;;;;;;;;;;7366232;19;20653;-80
2022/12/12 13:25:26;;;;;;;29.40;13.90;;;;;;;;;;7367134;19;20038;-81
2022/12/12 13:27:53;;;;;;;27.60;13.70;;;;;;;;;;7352070;19;20104;-81
2022/12/12 13:30:21;;;;;;;31.80;13.52;;;;;;;;;;7324328;19;20026;-81
2022/12/12 13:32:49;;;;;;;28.90;13.13;;;;;;;;;;7333785;19;20006;-81
2022/12/12 13:35:29;;;;;;;25.75;11.68;;;;;;;;;;7352710;19;20022;-80
2022/12/12 13:37:55;;;;;;;26.27;11.02;;;;;;;;;;7343894;19;20134;-82
2022/12/12 13:40:25;;;;;;;20.48;8.80;;;;;;;;;;7349933;19;20146;-81
2022/12/12 13:42:52;;;;;;;26.95;10.52;;;;;;;;;;7355595;19;20030;-81
2022/12/12 13:45:44;;;;;;;27.38;11.30;;;;;;;;;;7356311;19;20034;-83
2022/12/12 13:48:21;;;;;;;31.52;10.57;;;;;;;;;;7353635;19;20011;-80
2022/12/12 13:50:46;;;;;;;21.35;10.35;;;;;;;;;;7361118;19;20041;-81
2022/12/12 13:53:15;;;;;;;22.00;9.97;;;;;;;;;;7360945;19;20078;-80
2022/12/12 13:55:41;;;;;;;21.75;11.10;;;;;;;;;;7363092;19;20279;-80
2022/12/12 13:58:07;;;;;;;25.67;11.43;;;;;;;;;;7347470;19;20014;-81
2022/12/12 14:00:38;;;;;;;19.92;10.63;;;;;;;;;;7364960;19;20580;-83
2022/12/12 14:03:09;;;;;;;22.35;10.68;;;;;;;;;;7359007;19;20014;-78
2022/12/12 14:05:43;;;;;;;25.55;10.88;;;;;;;;;;7366806;19;20571;-79
2022/12/12 14:08:09;;;;;;;23.38;11.13;;;;;;;;;;7362728;19;20102;-79
2022/12/12 14:10:34;;;;;;;19.95;11.05;;;;;;;;;;7340578;19;20142;-79
2022/12/12 14:13:29;;;;;;;25.58;11.10;;;;;;;;;;7347157;19;20007;-80
2022/12/12 14:15:54;;;;;;;24.27;12.30;;;;;;;;;;7367270;19;20530;-79
2022/12/12 14:18:20;;;;;;;28.73;12.05;;;;;;;;;;7364699;19;20007;-80
2022/12/12 14:20:53;;;;;;;25.38;12.38;;;;;;;;;;7368911;19;20271;-81
2022/12/12 14:23:23;;;;;;;25.48;12.57;;;;;;;;;;7367200;19;20027;-80
2022/12/12 14:25:48;;;;;;;27.65;13.38;;;;;;;;;;7371430;19;20544;-81
2022/12/12 14:28:15;;;;;;;26.27;13.07;;;;;;;;;;7358774;19;20002;-79
2022/12/12 14:30:45;;;;;;;27.17;12.25;;;;;;;;;;7373930;19;20010;-79
2022/12/12 14:33:16;;;;;;;31.52;13.40;;;;;;;;;;7368033;19;20060;-79
2022/12/12 14:35:54;;;;;;;28.85;14.15;;;;;;;;;;7375824;19;20010;-79
2022/12/12 14:38:19;;;;;;;29.55;13.23;;;;;;;;;;7319444;19;20014;-89
2022/12/12 14:40:46;;;;;;;23.63;11.55;;;;;;;;;;7350352;19;20005;-84